KBXA/BXA METAR and TAF weather

Enter ICAO airport designator
Station Type Date Time Source
KBXA METAR 2019/06/11 01:15 UTC NOAA

KBXA 110115Z AUTO 35009KT 10SM CLR 29/21 A3001 RMK AO2 T02850212


Station Type Date Time Source
KBXA Decoded METAR 2019/06/11 01:15 UTC NOAA

Bogalusa, George R Carr Memorial Air Field, LA, United States (KBXA) 30-48-49N 089-51-53W
Jun 10, 2019 - 09:15 PM EDT / 2019.06.11 0115 UTC
Wind: from the N (350 degrees) at 10 MPH (9 KT):0
Visibility: 10 mile(s):0
Sky conditions: clear
Temperature: 83.3 F (28.5 C)
Dew Point: 70.2 F (21.2 C)
Relative Humidity: 64%
Pressure (altimeter): 30.01 in. Hg (1016 hPa)
ob: KBXA 110115Z AUTO 35009KT 10SM CLR 29/21 A3001 RMK AO2 T02850212
cycle: 1

Station Type Date Time Source
KBXA TAF UTC NOAA

Error!

Example: see airport list